sensor_id;sensor_type;location;lat;lon;timestamp;pressure;altitude;pressure_sealevel;temperature;humidity
7834;BME280;3962;42.696;23.354;2024-03-02T00:00:49;94611.28;;;8.31;95.61
7834;BME280;3962;42.696;23.354;2024-03-02T00:03:17;94610.81;;;8.36;95.69
7834;BME280;3962;42.696;23.354;2024-03-02T00:05:48;94613.16;;;8.39;95.06
7834;BME280;3962;42.696;23.354;2024-03-02T00:08:22;94623.53;;;8.32;95.13
7834;BME280;3962;42.696;23.354;2024-03-02T00:10:51;94610.38;;;8.40;94.90
7834;BME280;3962;42.696;23.354;2024-03-02T00:13:22;94617.56;;;8.48;94.86
7834;BME280;3962;42.696;23.354;2024-03-02T00:15:52;94613.31;;;8.55;93.49
7834;BME280;3962;42.696;23.354;2024-03-02T00:18:23;94610.44;;;8.48;93.98
7834;BME280;3962;42.696;23.354;2024-03-02T00:20:53;94608.94;;;8.46;93.05
7834;BME280;3962;42.696;23.354;2024-03-02T00:23:20;94613.84;;;8.41;92.43
7834;BME280;3962;42.696;23.354;2024-03-02T00:25:49;94600.03;;;8.37;92.96
7834;BME280;3962;42.696;23.354;2024-03-02T00:28:22;94603.00;;;8.34;93.13
7834;BME280;3962;42.696;23.354;2024-03-02T00:30:55;94612.03;;;8.41;93.29
7834;BME280;3962;42.696;23.354;2024-03-02T00:33:22;94610.44;;;8.48;93.47
7834;BME280;3962;42.696;23.354;2024-03-02T00:35:50;94598.84;;;8.49;93.52
7834;BME280;3962;42.696;23.354;2024-03-02T00:38:17;94599.84;;;8.48;93.26
7834;BME280;3962;42.696;23.354;2024-03-02T00:40:44;94603.63;;;8.46;93.31
7834;BME280;3962;42.696;23.354;2024-03-02T00:46:07;94599.47;;;8.61;92.86
7834;BME280;3962;42.696;23.354;2024-03-02T00:48:34;94599.78;;;8.58;92.53
7834;BME280;3962;42.696;23.354;2024-03-02T00:51:02;94601.72;;;8.56;92.21
7834;BME280;3962;42.696;23.354;2024-03-02T00:53:31;94592.50;;;8.60;91.89
7834;BME280;3962;42.696;23.354;2024-03-02T00:55:58;94588.72;;;8.62;91.80
7834;BME280;3962;42.696;23.354;2024-03-02T00:58:25;94595.06;;;8.69;91.67
7834;BME280;3962;42.696;23.354;2024-03-02T01:00:52;94592.09;;;8.72;91.23
7834;BME280;3962;42.696;23.354;2024-03-02T01:03:20;94589.84;;;8.77;91.60
7834;BME280;3962;42.696;23.354;2024-03-02T01:05:47;94589.66;;;8.79;91.52
7834;BME280;3962;42.696;23.354;2024-03-02T01:08:14;94589.44;;;8.90;91.12
7834;BME280;3962;42.696;23.354;2024-03-02T01:10:41;94587.94;;;8.87;90.29
7834;BME280;3962;42.696;23.354;2024-03-02T01:13:07;94590.50;;;8.97;90.58
7834;BME280;3962;42.696;23.354;2024-03-02T01:15:34;94588.13;;;8.94;90.48
7834;BME280;3962;42.696;23.354;2024-03-02T01:18:01;94576.53;;;8.95;90.62
7834;BME280;3962;42.696;23.354;2024-03-02T01:20:29;94578.50;;;8.93;90.21
7834;BME280;3962;42.696;23.354;2024-03-02T01:22:56;94580.50;;;8.91;90.82
7834;BME280;3962;42.696;23.354;2024-03-02T01:25:23;94578.06;;;8.80;91.64
7834;BME280;3962;42.696;23.354;2024-03-02T01:27:50;94572.88;;;8.70;93.01
7834;BME280;3962;42.696;23.354;2024-03-02T01:30:17;94574.47;;;8.63;92.92
7834;BME280;3962;42.696;23.354;2024-03-02T01:32:44;94560.81;;;8.58;93.71
7834;BME280;3962;42.696;23.354;2024-03-02T01:35:11;94565.38;;;8.48;94.15
7834;BME280;3962;42.696;23.354;2024-03-02T01:37:39;94570.97;;;8.45;94.82
7834;BME280;3962;42.696;23.354;2024-03-02T01:40:07;94562.34;;;8.43;94.68
7834;BME280;3962;42.696;23.354;2024-03-02T01:42:35;94562.88;;;8.47;95.84
7834;BME280;3962;42.696;23.354;2024-03-02T01:45:04;94565.53;;;8.47;95.17
7834;BME280;3962;42.696;23.354;2024-03-02T01:47:31;94560.53;;;8.44;95.00
7834;BME280;3962;42.696;23.354;2024-03-02T01:49:58;94556.38;;;8.41;95.58
7834;BME280;3962;42.696;23.354;2024-03-02T01:52:25;94556.06;;;8.44;95.58
7834;BME280;3962;42.696;23.354;2024-03-02T01:54:53;94558.56;;;8.46;95.86
7834;BME280;3962;42.696;23.354;2024-03-02T01:57:20;94564.19;;;8.43;95.90
7834;BME280;3962;42.696;23.354;2024-03-02T01:59:47;94551.38;;;8.38;95.59
7834;BME280;3962;42.696;23.354;2024-03-02T02:02:14;94559.94;;;8.32;96.08
7834;BME280;3962;42.696;23.354;2024-03-02T02:04:40;94560.91;;;8.31;96.21
7834;BME280;3962;42.696;23.354;2024-03-02T02:07:07;94559.69;;;8.26;96.81
7834;BME280;3962;42.696;23.354;2024-03-02T02:09:35;94560.66;;;8.25;97.04
7834;BME280;3962;42.696;23.354;2024-03-02T02:12:04;94564.47;;;8.22;96.96
7834;BME280;3962;42.696;23.354;2024-03-02T02:14:32;94560.97;;;8.22;97.34
7834;BME280;3962;42.696;23.354;2024-03-02T02:16:59;94562.78;;;8.21;97.43
7834;BME280;3962;42.696;23.354;2024-03-02T02:19:26;94561.28;;;8.19;97.18
7834;BME280;3962;42.696;23.354;2024-03-02T02:21:54;94556.09;;;8.17;97.47
7834;BME280;3962;42.696;23.354;2024-03-02T02:24:21;94553.75;;;8.14;97.44
7834;BME280;3962;42.696;23.354;2024-03-02T02:26:47;94554.72;;;8.13;97.38
7834;BME280;3962;42.696;23.354;2024-03-02T02:29:14;94557.22;;;8.15;97.36
7834;BME280;3962;42.696;23.354;2024-03-02T02:31:41;94555.88;;;8.11;97.39
7834;BME280;3962;42.696;23.354;2024-03-02T02:34:08;94552.84;;;8.06;98.04
7834;BME280;3962;42.696;23.354;2024-03-02T02:36:37;94557.81;;;8.09;98.44
7834;BME280;3962;42.696;23.354;2024-03-02T02:39:07;94557.69;;;8.10;98.32
7834;BME280;3962;42.696;23.354;2024-03-02T02:41:36;94550.03;;;8.07;98.54
7834;BME280;3962;42.696;23.354;2024-03-02T02:44:03;94548.81;;;8.02;99.08
7834;BME280;3962;42.696;23.354;2024-03-02T02:46:30;94550.09;;;7.98;99.74
7834;BME280;3962;42.696;23.354;2024-03-02T02:48:57;94549.69;;;7.93;99.20
7834;BME280;3962;42.696;23.354;2024-03-02T02:51:51;94545.38;;;7.92;99.63
7834;BME280;3962;42.696;23.354;2024-03-02T02:54:20;94550.69;;;7.92;100.00
7834;BME280;3962;42.696;23.354;2024-03-02T02:56:46;94550.00;;;7.90;100.00
7834;BME280;3962;42.696;23.354;2024-03-02T02:59:13;94555.16;;;7.91;99.41
7834;BME280;3962;42.696;23.354;2024-03-02T03:01:40;94556.84;;;7.92;99.65
7834;BME280;3962;42.696;23.354;2024-03-02T03:04:06;94553.34;;;7.92;100.00
7834;BME280;3962;42.696;23.354;2024-03-02T03:06:33;94556.66;;;7.94;99.46
7834;BME280;3962;42.696;23.354;2024-03-02T03:09:00;94556.97;;;7.91;99.21
7834;BME280;3962;42.696;23.354;2024-03-02T03:11:29;94554.31;;;7.91;100.00
7834;BME280;3962;42.696;23.354;2024-03-02T03:13:55;94555.00;;;7.93;99.59
7834;BME280;3962;42.696;23.354;2024-03-02T03:16:22;94557.50;;;7.94;100.00
7834;BME280;3962;42.696;23.354;2024-03-02T03:18:49;94552.88;;;7.96;100.00
7834;BME280;3962;42.696;23.354;2024-03-02T03:21:18;94556.22;;;7.98;100.00
7834;BME280;3962;42.696;23.354;2024-03-02T03:23:45;94557.91;;;7.99;100.00
7834;BME280;3962;42.696;23.354;2024-03-02T03:26:12;94556.06;;;8.00;100.00
7834;BME280;3962;42.696;23.354;2024-03-02T03:28:40;94557.59;;;8.02;100.00
7834;BME280;3962;42.696;23.354;2024-03-02T03:31:07;94554.81;;;8.04;99.85
7834;BME280;3962;42.696;23.354;2024-03-02T03:33:34;94550.50;;;8.03;99.96
7834;BME280;3962;42.696;23.354;2024-03-02T03:36:00;94562.03;;;8.02;99.80
7834;BME280;3962;42.696;23.354;2024-03-02T03:38:28;94558.88;;;7.98;100.00
7834;BME280;3962;42.696;23.354;2024-03-02T03:40:55;94565.84;;;7.99;100.00
7834;BME280;3962;42.696;23.354;2024-03-02T03:43:22;94559.16;;;7.95;100.00
7834;BME280;3962;42.696;23.354;2024-03-02T03:45:50;94552.53;;;7.91;100.00
7834;BME280;3962;42.696;23.354;2024-03-02T03:48:17;94557.28;;;7.88;100.00
7834;BME280;3962;42.696;23.354;2024-03-02T03:50:44;94554.63;;;7.88;100.00
7834;BME280;3962;42.696;23.354;2024-03-02T03:53:10;94559.75;;;7.89;100.00
7834;BME280;3962;42.696;23.354;2024-03-02T03:55:37;94547.91;;;7.93;100.00
7834;BME280;3962;42.696;23.354;2024-03-02T03:58:04;94549.47;;;7.86;100.00
7834;BME280;3962;42.696;23.354;2024-03-02T04:00:31;94548.34;;;7.89;100.00
7834;BME280;3962;42.696;23.354;2024-03-02T04:02:59;94550.16;;;7.88;100.00
7834;BME280;3962;42.696;23.354;2024-03-02T04:05:26;94553.78;;;7.87;100.00
7834;BME280;3962;42.696;23.354;2024-03-02T04:07:53;94548.19;;;7.90;100.00
7834;BME280;3962;42.696;23.354;2024-03-02T04:10:19;94553.06;;;7.95;100.00
7834;BME280;3962;42.696;23.354;2024-03-02T04:12:46;94545.13;;;7.95;100.00
7834;BME280;3962;42.696;23.354;2024-03-02T04:15:13;94550.56;;;7.93;100.00
7834;BME280;3962;42.696;23.354;2024-03-02T04:17:40;94552.88;;;7.96;100.00
7834;BME280;3962;42.696;23.354;2024-03-02T04:20:09;94542.88;;;7.90;100.00
7834;BME280;3962;42.696;23.354;2024-03-02T04:22:37;94552.34;;;7.93;100.00
7834;BME280;3962;42.696;23.354;2024-03-02T04:25:04;94542.75;;;7.92;100.00
7834;BME280;3962;42.696;23.354;2024-03-02T04:27:32;94560.47;;;7.91;100.00
7834;BME280;3962;42.696;23.354;2024-03-02T04:29:59;94554.19;;;7.92;100.00
7834;BME280;3962;42.696;23.354;2024-03-02T04:32:26;94547.75;;;7.95;100.00
7834;BME280;3962;42.696;23.354;2024-03-02T04:34:53;94549.16;;;7.89;100.00
7834;BME280;3962;42.696;23.354;2024-03-02T04:37:21;94556.84;;;7.92;100.00
7834;BME280;3962;42.696;23.354;2024-03-02T04:39:48;94559.16;;;7.95;100.00
7834;BME280;3962;42.696;23.354;2024-03-02T04:42:15;94564.03;;;8.00;100.00
7834;BME280;3962;42.696;23.354;2024-03-02T04:44:42;94555.78;;;8.03;100.00
7834;BME280;3962;42.696;23.354;2024-03-02T04:47:08;94558.97;;;8.06;100.00
7834;BME280;3962;42.696;23.354;2024-03-02T04:49:35;94563.81;;;8.11;100.00
7834;BME280;3962;42.696;23.354;2024-03-02T04:52:02;94570.63;;;8.13;100.00
7834;BME280;3962;42.696;23.354;2024-03-02T04:54:31;94573.38;;;8.21;100.00
7834;BME280;3962;42.696;23.354;2024-03-02T04:56:57;94573.09;;;8.24;100.00
7834;BME280;3962;42.696;23.354;2024-03-02T04:59:24;94565.22;;;8.32;100.00
7834;BME280;3962;42.696;23.354;2024-03-02T05:01:51;94567.03;;;8.32;100.00
7834;BME280;3962;42.696;23.354;2024-03-02T05:04:18;94567.44;;;8.37;100.00
7834;BME280;3962;42.696;23.354;2024-03-02T05:06:44;94568.56;;;8.34;100.00
7834;BME280;3962;42.696;23.354;2024-03-02T05:09:17;94573.84;;;8.34;100.00
7834;BME280;3962;42.696;23.354;2024-03-02T05:11:45;94578.75;;;8.29;100.00
7834;BME280;3962;42.696;23.354;2024-03-02T05:14:28;94580.88;;;8.26;100.00
7834;BME280;3962;42.696;23.354;2024-03-02T05:16:55;94577.03;;;8.20;100.00
7834;BME280;3962;42.696;23.354;2024-03-02T05:19:21;94579.09;;;8.17;100.00
7834;BME280;3962;42.696;23.354;2024-03-02T05:21:48;94575.91;;;8.13;100.00
7834;BME280;3962;42.696;23.354;2024-03-02T05:24:15;94579.56;;;8.12;100.00
7834;BME280;3962;42.696;23.354;2024-03-02T05:26:42;94587.13;;;8.07;100.00
7834;BME280;3962;42.696;23.354;2024-03-02T05:29:10;94591.59;;;8.07;100.00
7834;BME280;3962;42.696;23.354;2024-03-02T05:31:37;94595.75;;;8.09;100.00
7834;BME280;3962;42.696;23.354;2024-03-02T05:34:03;94599.22;;;8.10;100.00
7834;BME280;3962;42.696;23.354;2024-03-02T05:36:31;94594.91;;;8.09;100.00
7834;BME280;3962;42.696;23.354;2024-03-02T05:38:58;94607.03;;;8.11;100.00
7834;BME280;3962;42.696;23.354;2024-03-02T05:41:25;94606.34;;;8.09;100.00
7834;BME280;3962;42.696;23.354;2024-03-02T05:43:52;94608.16;;;8.09;100.00
7834;BME280;3962;42.696;23.354;2024-03-02T05:46:20;94611.34;;;8.12;100.00
7834;BME280;3962;42.696;23.354;2024-03-02T05:48:47;94609.53;;;8.13;100.00
7834;BME280;3962;42.696;23.354;2024-03-02T05:51:14;94616.09;;;8.09;100.00
7834;BME280;3962;42.696;23.354;2024-03-02T05:53:41;94614.22;;;8.01;100.00
7834;BME280;3962;42.696;23.354;2024-03-02T05:56:08;94615.03;;;8.02;100.00
7834;BME280;3962;42.696;23.354;2024-03-02T05:58:35;94615.19;;;8.00;100.00
7834;BME280;3962;42.696;23.354;2024-03-02T06:01:15;94621.31;;;8.01;100.00
7834;BME280;3962;42.696;23.354;2024-03-02T06:03:44;94615.34;;;7.99;100.00
7834;BME280;3962;42.696;23.354;2024-03-02T06:06:11;94616.88;;;8.01;100.00
7834;BME280;3962;42.696;23.354;2024-03-02T06:08:38;94618.97;;;7.98;100.00
7834;BME280;3962;42.696;23.354;2024-03-02T06:11:05;94622.06;;;7.93;100.00
7834;BME280;3962;42.696;23.354;2024-03-02T06:13:31;94612.19;;;7.86;100.00
7834;BME280;3962;42.696;23.354;2024-03-02T06:15:58;94619.47;;;8.11;100.00
7834;BME280;3962;42.696;23.354;2024-03-02T06:18:25;94617.03;;;8.27;100.00
7834;BME280;3962;42.696;23.354;2024-03-02T06:20:54;94623.25;;;8.53;100.00
7834;BME280;3962;42.696;23.354;2024-03-02T06:23:20;94618.16;;;8.77;100.00
7834;BME280;3962;42.696;23.354;2024-03-02T06:25:47;94625.81;;;8.80;100.00
7834;BME280;3962;42.696;23.354;2024-03-02T06:28:14;94626.13;;;8.59;100.00
7834;BME280;3962;42.696;23.354;2024-03-02T06:30:41;94620.28;;;8.38;100.00
7834;BME280;3962;42.696;23.354;2024-03-02T06:33:08;94631.84;;;8.20;100.00
7834;BME280;3962;42.696;23.354;2024-03-02T06:35:35;94622.84;;;8.03;100.00
7834;BME280;3962;42.696;23.354;2024-03-02T06:38:03;94623.28;;;7.99;100.00
7834;BME280;3962;42.696;23.354;2024-03-02T06:40:30;94625.41;;;7.95;100.00
7834;BME280;3962;42.696;23.354;2024-03-02T06:42:57;94624.84;;;7.92;100.00
7834;BME280;3962;42.696;23.354;2024-03-02T06:45:24;94626.69;;;7.91;100.00
7834;BME280;3962;42.696;23.354;2024-03-02T06:47:50;94628.47;;;7.91;100.00
7834;BME280;3962;42.696;23.354;2024-03-02T06:50:17;94630.91;;;7.84;100.00
7834;BME280;3962;42.696;23.354;2024-03-02T06:52:44;94620.75;;;7.80;100.00
7834;BME280;3962;42.696;23.354;2024-03-02T06:55:12;94636.19;;;7.84;100.00
7834;BME280;3962;42.696;23.354;2024-03-02T06:57:39;94630.72;;;7.86;100.00
7834;BME280;3962;42.696;23.354;2024-03-02T07:00:07;94633.91;;;7.89;100.00
7834;BME280;3962;42.696;23.354;2024-03-02T07:02:34;94637.09;;;7.93;100.00
7834;BME280;3962;42.696;23.354;2024-03-02T07:05:01;94639.63;;;7.94;100.00
7834;BME280;3962;42.696;23.354;2024-03-02T07:07:28;94637.97;;;7.93;100.00
7834;BME280;3962;42.696;23.354;2024-03-02T07:09:55;94642.66;;;7.99;100.00
7834;BME280;3962;42.696;23.354;2024-03-02T07:12:23;94647.22;;;8.07;100.00
7834;BME280;3962;42.696;23.354;2024-03-02T07:14:50;94643.22;;;8.03;100.00
7834;BME280;3962;42.696;23.354;2024-03-02T07:17:50;94648.66;;;8.01;100.00
7834;BME280;3962;42.696;23.354;2024-03-02T07:20:17;94646.44;;;7.97;100.00
7834;BME280;3962;42.696;23.354;2024-03-02T07:22:44;94647.00;;;8.00;100.00
7834;BME280;3962;42.696;23.354;2024-03-02T07:25:11;94652.38;;;8.08;100.00
7834;BME280;3962;42.696;23.354;2024-03-02T07:27:39;94655.16;;;8.07;100.00
7834;BME280;3962;42.696;23.354;2024-03-02T07:30:06;94652.56;;;7.97;100.00
7834;BME280;3962;42.696;23.354;2024-03-02T07:32:33;94654.13;;;7.90;100.00
7834;BME280;3962;42.696;23.354;2024-03-02T07:35:00;94658.16;;;7.94;100.00
7834;BME280;3962;42.696;23.354;2024-03-02T07:37:29;94658.31;;;7.93;100.00
7834;BME280;3962;42.696;23.354;2024-03-02T07:39:55;94663.75;;;7.91;100.00
7834;BME280;3962;42.696;23.354;2024-03-02T07:42:22;94653.00;;;7.93;100.00
7834;BME280;3962;42.696;23.354;2024-03-02T07:44:50;94661.78;;;7.93;100.00
7834;BME280;3962;42.696;23.354;2024-03-02T07:47:17;94663.22;;;7.88;100.00
7834;BME280;3962;42.696;23.354;2024-03-02T07:49:44;94657.75;;;7.89;100.00
7834;BME280;3962;42.696;23.354;2024-03-02T07:52:11;94663.91;;;7.90;100.00
7834;BME280;3962;42.696;23.354;2024-03-02T07:54:38;94667.91;;;7.94;100.00
7834;BME280;3962;42.696;23.354;2024-03-02T07:57:05;94667.22;;;7.92;100.00
7834;BME280;3962;42.696;23.354;2024-03-02T07:59:32;94671.41;;;7.94;100.00
7834;BME280;3962;42.696;23.354;2024-03-02T08:02:00;94665.66;;;7.99;100.00
7834;BME280;3962;42.696;23.354;2024-03-02T08:04:26;94666.31;;;8.10;100.00
7834;BME280;3962;42.696;23.354;2024-03-02T08:06:53;94667.84;;;8.13;100.00
7834;BME280;3962;42.696;23.354;2024-03-02T08:09:21;94675.91;;;8.11;100.00
7834;BME280;3962;42.696;23.354;2024-03-02T08:11:47;94676.06;;;8.10;100.00
7834;BME280;3962;42.696;23.354;2024-03-02T08:14:14;94674.41;;;8.09;100.00
7834;BME280;3962;42.696;23.354;2024-03-02T08:16:41;94678.19;;;8.06;100.00
7834;BME280;3962;42.696;23.354;2024-03-02T08:19:09;94674.84;;;8.04;100.00
7834;BME280;3962;42.696;23.354;2024-03-02T08:21:36;94672.06;;;8.06;100.00
7834;BME280;3962;42.696;23.354;2024-03-02T08:24:04;94675.91;;;8.11;100.00
7834;BME280;3962;42.696;23.354;2024-03-02T08:26:31;94679.25;;;8.23;100.00
7834;BME280;3962;42.696;23.354;2024-03-02T08:28:58;94676.44;;;8.24;100.00
7834;BME280;3962;42.696;23.354;2024-03-02T08:31:27;94678.75;;;8.37;100.00
7834;BME280;3962;42.696;23.354;2024-03-02T08:33:53;94673.84;;;8.42;100.00
7834;BME280;3962;42.696;23.354;2024-03-02T08:36:22;94676.59;;;8.50;100.00
7834;BME280;3962;42.696;23.354;2024-03-02T08:38:49;94672.53;;;8.46;100.00
7834;BME280;3962;42.696;23.354;2024-03-02T08:41:17;94668.00;;;8.38;100.00
7834;BME280;3962;42.696;23.354;2024-03-02T08:43:44;94667.56;;;8.43;100.00
7834;BME280;3962;42.696;23.354;2024-03-02T08:46:10;94681.03;;;8.49;100.00
7834;BME280;3962;42.696;23.354;2024-03-02T08:48:37;94667.94;;;8.48;100.00
7834;BME280;3962;42.696;23.354;2024-03-02T08:51:04;94674.75;;;8.50;100.00
7834;BME280;3962;42.696;23.354;2024-03-02T08:53:34;94669.97;;;8.54;100.00
7834;BME280;3962;42.696;23.354;2024-03-02T08:56:01;94665.88;;;8.59;100.00
7834;BME280;3962;42.696;23.354;2024-03-02T08:58:30;94670.47;;;8.67;100.00
7834;BME280;3962;42.696;23.354;2024-03-02T09:00:57;94672.34;;;8.74;100.00
7834;BME280;3962;42.696;23.354;2024-03-02T09:03:24;94671.97;;;8.87;100.00
7834;BME280;3962;42.696;23.354;2024-03-02T09:05:51;94679.38;;;8.83;100.00
7834;BME280;3962;42.696;23.354;2024-03-02T09:08:18;94675.69;;;8.94;100.00
7834;BME280;3962;42.696;23.354;2024-03-02T09:10:46;94674.94;;;9.01;100.00
7834;BME280;3962;42.696;23.354;2024-03-02T09:13:13;94679.59;;;9.07;100.00
7834;BME280;3962;42.696;23.354;2024-03-02T09:15:40;94679.38;;;9.18;100.00
7834;BME280;3962;42.696;23.354;2024-03-02T09:18:06;94684.63;;;9.10;100.00
7834;BME280;3962;42.696;23.354;2024-03-02T09:20:33;94683.44;;;9.05;100.00
7834;BME280;3962;42.696;23.354;2024-03-02T09:23:00;94687.97;;;9.12;100.00
7834;BME280;3962;42.696;23.354;2024-03-02T09:25:27;94694.47;;;9.00;100.00
7834;BME280;3962;42.696;23.354;2024-03-02T09:27:55;94692.34;;;9.04;100.00
7834;BME280;3962;42.696;23.354;2024-03-02T09:30:22;94684.31;;;8.96;100.00
7834;BME280;3962;42.696;23.354;2024-03-02T09:32:48;94693.97;;;8.97;100.00
7834;BME280;3962;42.696;23.354;2024-03-02T09:35:15;94691.06;;;9.08;100.00
7834;BME280;3962;42.696;23.354;2024-03-02T09:37:43;94688.41;;;9.08;100.00
7834;BME280;3962;42.696;23.354;2024-03-02T09:40:11;94685.97;;;9.14;100.00
7834;BME280;3962;42.696;23.354;2024-03-02T09:42:38;94696.25;;;9.09;99.76
7834;BME280;3962;42.696;23.354;2024-03-02T09:45:07;94696.31;;;9.17;100.00
7834;BME280;3962;42.696;23.354;2024-03-02T09:47:34;94688.94;;;9.29;100.00
7834;BME280;3962;42.696;23.354;2024-03-02T09:50:01;94687.56;;;9.25;100.00
7834;BME280;3962;42.696;23.354;2024-03-02T09:52:30;94691.28;;;9.32;100.00
7834;BME280;3962;42.696;23.354;2024-03-02T09:54:57;94702.94;;;9.39;100.00
7834;BME280;3962;42.696;23.354;2024-03-02T09:57:24;94692.19;;;9.40;100.00
7834;BME280;3962;42.696;23.354;2024-03-02T09:59:51;94695.34;;;9.44;100.00
7834;BME280;3962;42.696;23.354;2024-03-02T10:02:19;94692.91;;;9.50;100.00
7834;BME280;3962;42.696;23.354;2024-03-02T10:04:48;94691.91;;;9.51;99.53
7834;BME280;3962;42.696;23.354;2024-03-02T10:07:16;94699.75;;;9.53;99.10
7834;BME280;3962;42.696;23.354;2024-03-02T10:09:45;94699.41;;;9.56;98.58
7834;BME280;3962;42.696;23.354;2024-03-02T10:12:13;94695.38;;;9.52;98.85
7834;BME280;3962;42.696;23.354;2024-03-02T10:14:40;94698.75;;;9.54;98.52
7834;BME280;3962;42.696;23.354;2024-03-02T10:17:08;94694.31;;;9.62;98.62
7834;BME280;3962;42.696;23.354;2024-03-02T10:19:37;94694.53;;;9.69;99.44
7834;BME280;3962;42.696;23.354;2024-03-02T10:22:05;94692.19;;;9.66;98.21
7834;BME280;3962;42.696;23.354;2024-03-02T10:24:36;94693.78;;;9.59;98.00
7834;BME280;3962;42.696;23.354;2024-03-02T10:27:07;94698.94;;;9.60;97.96
7834;BME280;3962;42.696;23.354;2024-03-02T10:29:37;94691.41;;;9.73;97.87
7834;BME280;3962;42.696;23.354;2024-03-02T10:32:05;94689.44;;;9.75;98.04
7834;BME280;3962;42.696;23.354;2024-03-02T10:34:32;94690.72;;;9.71;97.22
7834;BME280;3962;42.696;23.354;2024-03-02T10:37:01;94682.44;;;9.74;97.23
7834;BME280;3962;42.696;23.354;2024-03-02T10:39:28;94678.81;;;9.75;98.14
7834;BME280;3962;42.696;23.354;2024-03-02T10:41:58;94685.72;;;9.68;98.73
7834;BME280;3962;42.696;23.354;2024-03-02T10:44:25;94693.97;;;9.57;98.06
7834;BME280;3962;42.696;23.354;2024-03-02T10:46:53;94683.69;;;9.62;98.43
7834;BME280;3962;42.696;23.354;2024-03-02T10:49:22;94687.84;;;9.65;98.46
7834;BME280;3962;42.696;23.354;2024-03-02T10:51:50;94687.19;;;9.63;97.90
7834;BME280;3962;42.696;23.354;2024-03-02T10:54:18;94681.88;;;9.63;98.41
7834;BME280;3962;42.696;23.354;2024-03-02T10:56:52;94676.41;;;9.64;98.01
7834;BME280;3962;42.696;23.354;2024-03-02T10:59:24;94675.63;;;9.72;98.01
7834;BME280;3962;42.696;23.354;2024-03-02T11:01:55;94675.53;;;9.81;97.99
7834;BME280;3962;42.696;23.354;2024-03-02T11:04:24;94671.81;;;9.74;97.43
7834;BME280;3962;42.696;23.354;2024-03-02T11:06:51;94677.66;;;9.78;98.00
7834;BME280;3962;42.696;23.354;2024-03-02T11:09:22;94673.00;;;9.80;98.19
7834;BME280;3962;42.696;23.354;2024-03-02T11:11:54;94672.63;;;9.75;97.44
7834;BME280;3962;42.696;23.354;2024-03-02T11:14:24;94672.34;;;9.78;97.70
7834;BME280;3962;42.696;23.354;2024-03-02T11:16:52;94679.94;;;9.73;97.59
7834;BME280;3962;42.696;23.354;2024-03-02T11:19:19;94663.63;;;9.60;97.62
7834;BME280;3962;42.696;23.354;2024-03-02T11:21:47;94667.88;;;9.53;98.63
7834;BME280;3962;42.696;23.354;2024-03-02T11:24:32;94663.31;;;9.45;99.41
7834;BME280;3962;42.696;23.354;2024-03-02T11:26:59;94669.94;;;9.41;99.98
7834;BME280;3962;42.696;23.354;2024-03-02T11:29:50;94676.06;;;9.42;100.00
7834;BME280;3962;42.696;23.354;2024-03-02T11:32:20;94668.84;;;9.52;100.00
7834;BME280;3962;42.696;23.354;2024-03-02T11:34:49;94664.84;;;9.48;100.00
7834;BME280;3962;42.696;23.354;2024-03-02T11:37:17;94667.66;;;9.46;100.00
7834;BME280;3962;42.696;23.354;2024-03-02T11:39:49;94667.38;;;9.32;100.00
7834;BME280;3962;42.696;23.354;2024-03-02T11:42:16;94673.69;;;9.31;100.00
7834;BME280;3962;42.696;23.354;2024-03-02T11:44:45;94665.56;;;9.32;100.00
7834;BME280;3962;42.696;23.354;2024-03-02T11:47:14;94668.06;;;9.34;100.00
7834;BME280;3962;42.696;23.354;2024-03-02T11:49:43;94669.31;;;9.47;100.00
7834;BME280;3962;42.696;23.354;2024-03-02T11:52:11;94661.25;;;9.57;100.00
7834;BME280;3962;42.696;23.354;2024-03-02T11:54:40;94661.16;;;9.66;100.00
7834;BME280;3962;42.696;23.354;2024-03-02T11:57:14;94665.00;;;9.72;100.00
7834;BME280;3962;42.696;23.354;2024-03-02T11:59:41;94661.34;;;9.73;99.68
7834;BME280;3962;42.696;23.354;2024-03-02T12:02:15;94658.03;;;9.71;99.74
7834;BME280;3962;42.696;23.354;2024-03-02T12:04:42;94662.75;;;9.85;99.90
7834;BME280;3962;42.696;23.354;2024-03-02T12:07:10;94656.44;;;9.86;99.25
7834;BME280;3962;42.696;23.354;2024-03-02T12:09:37;94659.72;;;9.80;98.40
7834;BME280;3962;42.696;23.354;2024-03-02T12:12:05;94653.09;;;9.76;98.14
7834;BME280;3962;42.696;23.354;2024-03-02T12:14:34;94664.06;;;9.81;96.46
7834;BME280;3962;42.696;23.354;2024-03-02T12:17:01;94651.31;;;9.92;97.13
7834;BME280;3962;42.696;23.354;2024-03-02T12:19:29;94659.66;;;9.97;96.29
7834;BME280;3962;42.696;23.354;2024-03-02T12:21:56;94661.84;;;10.02;96.30
7834;BME280;3962;42.696;23.354;2024-03-02T12:24:24;94651.50;;;9.99;95.55
7834;BME280;3962;42.696;23.354;2024-03-02T12:26:53;94661.97;;;9.92;95.21
7834;BME280;3962;42.696;23.354;2024-03-02T12:29:21;94665.28;;;9.94;95.50
7834;BME280;3962;42.696;23.354;2024-03-02T12:31:50;94659.16;;;9.94;94.71
7834;BME280;3962;42.696;23.354;2024-03-02T12:34:18;94660.81;;;9.95;95.19
7834;BME280;3962;42.696;23.354;2024-03-02T12:36:46;94666.31;;;10.01;94.67
7834;BME280;3962;42.696;23.354;2024-03-02T12:39:15;94652.59;;;10.06;94.92
7834;BME280;3962;42.696;23.354;2024-03-02T12:41:43;94658.41;;;10.09;94.98
7834;BME280;3962;42.696;23.354;2024-03-02T12:44:09;94660.28;;;10.17;94.83
7834;BME280;3962;42.696;23.354;2024-03-02T12:46:36;94660.31;;;10.25;95.03
7834;BME280;3962;42.696;23.354;2024-03-02T12:49:10;94661.34;;;10.32;94.87
7834;BME280;3962;42.696;23.354;2024-03-02T12:51:37;94666.66;;;10.32;93.32
7834;BME280;3962;42.696;23.354;2024-03-02T12:54:06;94658.88;;;10.38;93.49
7834;BME280;3962;42.696;23.354;2024-03-02T12:56:33;94663.56;;;10.44;92.84
7834;BME280;3962;42.696;23.354;2024-03-02T12:59:01;94666.03;;;10.46;92.36
7834;BME280;3962;42.696;23.354;2024-03-02T13:01:28;94663.56;;;10.44;92.48
7834;BME280;3962;42.696;23.354;2024-03-02T13:03:55;94668.69;;;10.46;92.03
7834;BME280;3962;42.696;23.354;2024-03-02T13:06:24;94660.72;;;10.46;92.02
7834;BME280;3962;42.696;23.354;2024-03-02T13:08:53;94658.91;;;10.46;91.63
7834;BME280;3962;42.696;23.354;2024-03-02T13:11:21;94665.72;;;10.49;91.36
7834;BME280;3962;42.696;23.354;2024-03-02T13:13:49;94663.22;;;10.47;91.22
7834;BME280;3962;42.696;23.354;2024-03-02T13:16:16;94668.53;;;10.47;90.89
7834;BME280;3962;42.696;23.354;2024-03-02T13:18:44;94661.03;;;10.43;90.05
7834;BME280;3962;42.696;23.354;2024-03-02T13:21:11;94670.84;;;10.42;90.23